Terminal Aerodrome Forecast
Issued by NWS

Home | Current Version | Previous Version | Text Only | Print | Product List | Glossary On
Versions: 1 2 3 4 5 6 7 8 9 10 11 12 13 14 15 16 17 18 19 20
000
FTUS43 KICT 250837 AAA
TAFSLN
TAF AMD
KSLN 250837Z 2509/2606 15008KT P6SM VCTS SCT035CB OVC070
      TEMPO 2509/2510 VRB15G30KT 2SM TSRA OVC015CB
     FM251000 15008KT P6SM VCTS SCT025 OVC060CB
     FM251300 16008KT 4SM BR BKN007 OVC012
     FM251600 19010KT P6SM SCT025
     FM252100 18013G20KT P6SM SCT040=

USA.gov is the U.S. government's official web portal to all federal, state and local government web resources and services.